Nearby METAR Reports

 

LEVT - Vitoria, Spain
Distance from station: O 10km
Actualización: 29/11/2020 05:00
Despejado
Despejado
 Viento del varies
Viento: varies 2 km/h
Temperatura: 1°C
Rocío: 1°C
Humedad: 100%
Barómetro: 1013 hPa
Resumen: Despejado
Visibility: greater than 10 km
2020/11/29 04:00 LEVT 290400Z VRB01KT CAVOK 01/01 Q1013
LELO - Logrono/Agoncill, Spain
Distance from station: SSE 51km
Actualización: 29/11/2020 05:00
Few Clouds
Few Clouds
 Viento del S
Viento: S 4 km/h
Temperatura: 5°C
Rocío: 4°C
Humedad: 93%
Barómetro: 1013 hPa
Clouds: Few Clouds
Visibility: 8 km
Cloud details: Few Clouds 1829 m
2020/11/29 04:00 LELO 290400Z AUTO 17002KT 8000 FEW060 05/04 Q1013
LEBB - Bilbao/Sondica, Spain
Distance from station: NNO 54km
Actualización: 29/11/2020 05:00
Despejado
Despejado
 Viento del ESE
Viento: ESE 11 km/h
Temperatura: 8°C
Wind Chill: 6°C
Rocío: 7°C
Humedad: 93%
Barómetro: 1012 hPa
Resumen: Despejado
Visibility: greater than 10 km
2020/11/29 04:00 LEBB 290400Z 11006KT 070V150 CAVOK 08/07 Q1012 NOSIG
 
LEPP - Pamplona/Noain, Spain
Distance from station: E 78km
Actualización: 29/11/2020 05:00
Despejado
Despejado
 Viento del calm
Viento: Calma
Temperatura: 5°C
Rocío: 5°C
Humedad: 100%
Barómetro: 1013 hPa
Clouds: Despejado
Visibility: 7 km
2020/11/29 04:00 LEPP 290400Z AUTO 00000KT 7000 NCD 05/05 Q1013
LESO - San Sebastian/Fu, Spain
Distance from station: NE 85km
Actualización: 29/11/2020 05:00
Despejado
Despejado
 Viento del S
Viento: S 9 km/h
Temperatura: 10°C
Wind Chill: 9°C
Rocío: 7°C
Humedad: 82%
Barómetro: 1012 hPa
Resumen: Despejado
Visibility: greater than 10 km
2020/11/29 04:00 LESO 290400Z AUTO 17005KT 120V200 CAVOK 10/07 Q1012
LEBG - Burgos/Villafria, Spain
Distance from station: SO 100km
Actualización: 29/11/2020 05:00
Despejado
Despejado
 Viento del NNE
Viento: NNE 6 km/h
Temperatura: 3°C
Rocío: 1°C
Humedad: 87%
Barómetro: 1013 hPa
Resumen: Despejado
Visibility: greater than 10 km
2020/11/29 04:00 LEBG 290400Z AUTO 03003KT CAVOK 03/01 Q1013
 
LFBZ - Biarritz/Anglet, France
Distance from station: NE 111km
Actualización: 29/11/2020 05:00
Despejado
Despejado
 Viento del ENE
Viento: ENE 9 km/h
Temperatura: 8°C
Wind Chill: 6°C
Rocío: 7°C
Humedad: 93%
Barómetro: 1012 hPa
Resumen: Despejado
Visibility: greater than 10 km
2020/11/29 04:00 LFBZ 290400Z AUTO 07005KT CAVOK 08/07 Q1012 TEMPO 0300 FG VV///
LEXJ - Santander/Paraya, Spain
Distance from station: ONO 117km
Actualización: 29/11/2020 05:00
Despejado
Despejado
 Viento del ESE
Viento: ESE 9 km/h
Temperatura: 15°C
Rocío: 6°C
Humedad: 55%
Barómetro: 1011 hPa
Clouds: Despejado
Visibility: 8 km
2020/11/29 04:00 LEXJ 290400Z AUTO 11005KT 8000 NCD 15/06 Q1011